createdAt,value
2018-07-30T00:00:23.541Z,90.95
2018-07-30T00:01:23.496Z,92.93
2018-07-30T00:02:23.451Z,94.19
2018-07-30T00:03:23.435Z,90.91
2018-07-30T00:04:23.365Z,92.16
2018-07-30T00:05:23.361Z,89.94
2018-07-30T00:06:23.278Z,89.84
2018-07-30T00:07:23.233Z,89.94
2018-07-30T00:08:23.215Z,91.19
2018-07-30T00:09:23.144Z,94.38
2018-07-30T00:10:23.102Z,93.90
2018-07-30T00:11:23.057Z,95.25
2018-07-30T00:12:23.013Z,89.94
2018-07-30T00:13:22.991Z,90.03
2018-07-30T00:14:22.930Z,89.84
2018-07-30T00:15:22.888Z,92.65
2018-07-30T00:16:22.837Z,93.51
2018-07-30T00:17:22.799Z,91.58
2018-07-30T00:18:22.818Z,91.00
2018-07-30T00:19:22.711Z,91.77
2018-07-30T00:20:22.662Z,91.97
2018-07-30T00:21:22.652Z,91.09
2018-07-30T00:22:22.573Z,91.19
2018-07-30T00:23:22.530Z,92.16
2018-07-30T00:24:22.513Z,91.97
2018-07-30T00:25:22.444Z,91.77
2018-07-30T00:26:22.402Z,91.39
2018-07-30T00:27:22.361Z,91.29
2018-07-30T00:28:22.312Z,91.49
2018-07-30T00:29:22.295Z,90.42
2018-07-30T00:30:22.223Z,91.19
2018-07-30T00:31:22.194Z,95.15
2018-07-30T00:32:22.138Z,94.38
2018-07-30T00:33:22.093Z,92.74
2018-07-30T00:34:22.071Z,91.39
2018-07-30T00:35:22.005Z,91.58
2018-07-30T00:36:21.959Z,92.16
2018-07-30T00:37:21.917Z,92.45
2018-07-30T00:38:21.874Z,93.61
2018-07-30T00:39:21.851Z,92.16
2018-07-30T00:40:21.784Z,92.79
2018-07-30T00:41:21.739Z,92.07
2018-07-30T00:42:21.706Z,91.29
2018-07-30T00:43:21.653Z,91.39
2018-07-30T00:44:21.636Z,90.47
2018-07-30T00:45:21.564Z,91.00
2018-07-30T00:46:21.519Z,90.61
2018-07-30T00:47:21.477Z,90.81
2018-07-30T00:48:21.441Z,90.95
2018-07-30T00:49:21.412Z,90.67
2018-07-30T00:50:21.342Z,90.71
2018-07-30T00:51:21.299Z,91.05
2018-07-30T00:52:21.255Z,92.02
2018-07-30T00:53:21.215Z,93.85
2018-07-30T00:54:21.193Z,94.53
2018-07-30T00:55:21.124Z,93.85
2018-07-30T00:56:21.078Z,94.04
2018-07-30T00:57:21.040Z,95.11
2018-07-30T00:58:20.992Z,94.34
2018-07-30T00:59:20.969Z,94.24
2018-07-30T01:00:20.906Z,95.40
2018-07-30T01:01:20.859Z,95.20
2018-07-30T01:02:20.813Z,97.33
2018-07-30T01:03:20.769Z,98.10
2018-07-30T01:04:20.768Z,99.26
2018-07-30T01:05:20.695Z,98.92
2018-07-30T01:06:20.649Z,98.15
2018-07-30T01:07:20.598Z,97.47
2018-07-30T01:08:20.546Z,97.57
2018-07-30T01:09:20.527Z,96.70
2018-07-30T01:10:20.462Z,97.47
2018-07-30T01:11:20.414Z,96.12
2018-07-30T01:12:20.375Z,96.61
2018-07-30T01:13:20.328Z,97.67
2018-07-30T01:14:20.327Z,97.86
2018-07-30T01:15:20.238Z,97.38
2018-07-30T01:16:20.193Z,96.89
2018-07-30T01:17:20.155Z,97.09
2018-07-30T01:18:20.106Z,97.86
2018-07-30T01:19:20.082Z,97.47
2018-07-30T01:20:20.016Z,96.94
2018-07-30T01:21:19.973Z,97.81
2018-07-30T01:22:19.929Z,98.30
2018-07-30T01:23:19.886Z,98.00
2018-07-30T01:24:19.868Z,98.49
2018-07-30T01:25:19.797Z,98.20
2018-07-30T01:26:19.751Z,97.91
2018-07-30T01:27:19.710Z,97.72
2018-07-30T01:28:19.670Z,96.84
2018-07-30T01:29:19.650Z,96.46
2018-07-30T01:30:19.581Z,95.30
2018-07-30T01:31:19.529Z,95.50
2018-07-30T01:32:19.484Z,95.30
2018-07-30T01:33:19.441Z,95.50
2018-07-30T01:34:19.419Z,94.92
2018-07-30T01:35:19.359Z,95.20
2018-07-30T01:36:19.309Z,95.11
2018-07-30T01:37:19.261Z,94.82
2018-07-30T01:38:19.222Z,94.53
2018-07-30T01:39:19.195Z,94.34
2018-07-30T01:40:19.145Z,94.04
2018-07-30T01:41:19.084Z,94.24
2018-07-30T01:42:19.046Z,93.76
2018-07-30T01:43:18.996Z,94.53
2018-07-30T01:44:18.979Z,94.43
2018-07-30T01:45:18.909Z,94.14
2018-07-30T01:46:18.884Z,95.40
2018-07-30T01:47:18.820Z,96.46
2018-07-30T01:48:18.775Z,96.94
2018-07-30T01:49:18.753Z,98.88
2018-07-30T01:50:18.689Z,99.02
2018-07-30T01:51:18.649Z,99.99
2018-07-30T01:52:18.601Z,99.99
2018-07-30T01:53:18.553Z,99.99
2018-07-30T01:54:18.538Z,99.99
2018-07-30T01:55:18.467Z,99.79
2018-07-30T01:56:18.421Z,99.40
2018-07-30T01:57:18.378Z,98.44
2018-07-30T01:58:18.335Z,98.15
2018-07-30T01:59:18.285Z,97.42
2018-07-30T02:00:18.267Z,97.67
2018-07-30T02:01:18.201Z,98.25
2018-07-30T02:02:18.160Z,97.96
2018-07-30T02:03:18.110Z,99.21
2018-07-30T02:04:18.070Z,98.63
2018-07-30T02:05:18.050Z,99.31
2018-07-30T02:06:17.984Z,98.92
2018-07-30T02:07:17.932Z,99.21
2018-07-30T02:08:17.885Z,98.44
2018-07-30T02:09:17.842Z,98.34
2018-07-30T02:10:17.820Z,98.44
2018-07-30T02:11:17.755Z,99.40
2018-07-30T02:12:17.711Z,99.99
2018-07-30T02:13:17.664Z,99.99
2018-07-30T02:14:17.622Z,99.99
2018-07-30T02:15:17.607Z,99.40
2018-07-30T02:16:17.531Z,98.25
2018-07-30T02:17:17.487Z,96.70
2018-07-30T02:18:17.442Z,96.51
2018-07-30T02:19:17.398Z,96.80
2018-07-30T02:20:17.375Z,97.67
2018-07-30T02:21:17.321Z,97.19
2018-07-30T02:22:17.266Z,97.28
2018-07-30T02:23:17.222Z,97.38
2018-07-30T02:24:17.179Z,97.47
2018-07-30T02:25:17.154Z,97.47
2018-07-30T02:26:17.089Z,97.67
2018-07-30T02:27:17.053Z,98.44
2018-07-30T02:28:16.997Z,97.96
2018-07-30T02:29:16.953Z,98.83
2018-07-30T02:30:16.932Z,98.54
2018-07-30T02:31:16.870Z,98.73
2018-07-30T02:32:16.845Z,98.15
2018-07-30T02:33:16.788Z,98.92
2018-07-30T02:34:16.732Z,98.15
2018-07-30T02:35:16.711Z,98.39
2018-07-30T02:36:16.643Z,98.39
2018-07-30T02:37:16.594Z,98.49
2018-07-30T02:38:16.552Z,98.87
2018-07-30T02:39:16.509Z,98.29
2018-07-30T02:40:16.489Z,98.78
2018-07-30T02:41:16.419Z,98.10
2018-07-30T02:42:16.376Z,97.24
2018-07-30T02:43:16.330Z,97.24
2018-07-30T02:44:16.286Z,97.24
2018-07-30T02:45:16.267Z,97.91
2018-07-30T02:46:16.198Z,97.81
2018-07-30T02:47:16.155Z,97.52
2018-07-30T02:48:16.111Z,97.72
2018-07-30T02:49:16.061Z,97.14
2018-07-30T02:50:16.044Z,98.10
2018-07-30T02:51:15.977Z,97.72
2018-07-30T02:52:15.927Z,98.10
2018-07-30T02:53:15.882Z,97.62
2018-07-30T02:54:15.847Z,96.84
2018-07-30T02:55:15.821Z,98.00
2018-07-30T02:56:15.755Z,97.62
2018-07-30T02:57:15.722Z,98.20
2018-07-30T02:58:15.662Z,99.99
2018-07-30T02:59:15.619Z,99.99
2018-07-30T03:00:15.593Z,99.99
2018-07-30T03:01:15.534Z,99.99
2018-07-30T03:02:15.482Z,99.99
2018-07-30T03:03:15.436Z,99.99
2018-07-30T03:04:15.391Z,99.99
2018-07-30T03:05:15.373Z,99.99
2018-07-30T03:06:15.303Z,99.99
2018-07-30T03:07:15.260Z,99.99
2018-07-30T03:08:15.236Z,99.99
2018-07-30T03:09:15.181Z,99.99
2018-07-30T03:10:15.147Z,99.99
2018-07-30T03:11:15.080Z,99.99
2018-07-30T03:12:15.038Z,99.99
2018-07-30T03:13:15.001Z,99.99
2018-07-30T03:14:14.940Z,99.99
2018-07-30T03:15:14.921Z,99.99
2018-07-30T03:16:14.869Z,99.99
2018-07-30T03:17:14.806Z,99.99
2018-07-30T03:18:14.763Z,99.99
2018-07-30T03:19:14.717Z,99.99
2018-07-30T03:20:14.704Z,99.99
2018-07-30T03:21:14.640Z,99.99
2018-07-30T03:22:14.582Z,99.99
2018-07-30T03:23:14.544Z,99.99
2018-07-30T03:24:14.498Z,99.99
2018-07-30T03:25:14.478Z,99.99
2018-07-30T03:26:14.412Z,99.99
2018-07-30T03:27:14.370Z,99.99
2018-07-30T03:28:14.315Z,99.99
2018-07-30T03:29:14.270Z,99.99
2018-07-30T03:30:14.227Z,99.99
2018-07-30T03:31:14.205Z,99.99
2018-07-30T03:32:14.141Z,99.99
2018-07-30T03:33:14.089Z,99.99
2018-07-30T03:34:14.056Z,99.99
2018-07-30T03:35:13.999Z,99.99
2018-07-30T03:36:13.981Z,99.99
2018-07-30T03:37:13.910Z,99.99
2018-07-30T03:38:13.872Z,99.99
2018-07-30T03:39:13.823Z,99.99
2018-07-30T03:40:13.782Z,99.99
2018-07-30T03:41:13.757Z,99.99
2018-07-30T03:42:13.710Z,99.99
2018-07-30T03:43:13.644Z,99.99
2018-07-30T03:44:13.592Z,99.99
2018-07-30T03:45:13.554Z,99.99
2018-07-30T03:46:13.523Z,99.99
2018-07-30T03:47:13.461Z,99.99
2018-07-30T03:48:13.417Z,99.99
2018-07-30T03:49:13.372Z,99.99
2018-07-30T03:50:13.327Z,99.99
2018-07-30T03:51:13.303Z,99.99
2018-07-30T03:52:13.232Z,99.99
2018-07-30T03:53:13.193Z,99.99
2018-07-30T03:54:13.152Z,99.99
2018-07-30T03:55:13.106Z,99.99
2018-07-30T03:56:13.085Z,99.99
2018-07-30T03:57:13.024Z,99.99
2018-07-30T03:58:12.966Z,99.99
2018-07-30T03:59:12.924Z,99.99
2018-07-30T04:00:13.001Z,99.99
2018-07-30T04:01:12.847Z,99.99
2018-07-30T04:02:12.794Z,99.99
2018-07-30T04:03:12.734Z,99.99
2018-07-30T04:04:12.690Z,99.99
2018-07-30T04:05:12.660Z,99.99
2018-07-30T04:06:12.733Z,99.99
2018-07-30T04:07:12.565Z,99.99
2018-07-30T04:08:12.512Z,99.99
2018-07-30T04:09:12.465Z,99.99
2018-07-30T04:10:12.429Z,99.99
2018-07-30T04:11:12.396Z,99.99
2018-07-30T04:12:12.328Z,99.99
2018-07-30T04:13:12.284Z,99.99
2018-07-30T04:14:12.239Z,99.99
2018-07-30T04:15:12.196Z,99.99
2018-07-30T04:16:12.168Z,99.99
2018-07-30T04:17:12.103Z,99.99
2018-07-30T04:18:12.057Z,99.99
2018-07-30T04:19:12.011Z,99.99
2018-07-30T04:20:11.978Z,99.99
2018-07-30T04:21:11.946Z,99.99
2018-07-30T04:22:11.909Z,99.99
2018-07-30T04:23:11.830Z,99.99
2018-07-30T04:24:11.785Z,99.99
2018-07-30T04:25:11.741Z,99.99
2018-07-30T04:26:11.719Z,99.99
2018-07-30T04:27:11.671Z,99.99
2018-07-30T04:28:11.605Z,99.99
2018-07-30T04:29:11.567Z,99.99
2018-07-30T04:30:11.534Z,99.99
2018-07-30T04:31:11.493Z,99.99
2018-07-30T04:32:11.421Z,99.99
2018-07-30T04:33:11.377Z,99.99
2018-07-30T04:34:11.336Z,99.99
2018-07-30T04:35:11.290Z,99.99
2018-07-30T04:36:11.265Z,99.99
2018-07-30T04:37:11.200Z,99.99
2018-07-30T04:38:11.151Z,99.99
2018-07-30T04:39:11.112Z,99.99
2018-07-30T04:40:11.067Z,99.99
2018-07-30T04:41:11.061Z,99.99
2018-07-30T04:42:10.980Z,99.99
2018-07-30T04:43:10.928Z,99.99
2018-07-30T04:44:10.889Z,99.99
2018-07-30T04:45:10.845Z,99.99
2018-07-30T04:46:10.821Z,99.99
2018-07-30T04:47:10.749Z,99.99
2018-07-30T04:48:10.708Z,99.99
2018-07-30T04:49:10.690Z,99.99
2018-07-30T04:50:10.633Z,99.99
2018-07-30T04:51:10.598Z,99.99
2018-07-30T04:52:10.556Z,99.99
2018-07-30T04:53:10.482Z,99.99
2018-07-30T04:54:10.435Z,99.99
2018-07-30T04:55:10.393Z,99.99
2018-07-30T04:56:10.393Z,99.99
2018-07-30T04:57:10.300Z,99.99
2018-07-30T04:58:10.254Z,99.99
2018-07-30T04:59:10.214Z,99.99
2018-07-30T05:00:10.171Z,99.99
2018-07-30T05:01:10.127Z,99.99
2018-07-30T05:02:10.135Z,99.99
2018-07-30T05:03:10.038Z,99.99
2018-07-30T05:04:09.988Z,99.99
2018-07-30T05:05:09.953Z,99.99
2018-07-30T05:06:09.906Z,99.99
2018-07-30T05:07:09.905Z,99.99
2018-07-30T05:08:09.813Z,99.99
2018-07-30T05:09:09.775Z,99.99
2018-07-30T05:10:09.722Z,99.99
2018-07-30T05:11:09.720Z,99.99
2018-07-30T05:12:09.693Z,99.99
2018-07-30T05:13:09.604Z,99.89
2018-07-30T05:14:09.546Z,99.11
2018-07-30T05:15:09.511Z,97.23
2018-07-30T05:16:09.457Z,97.42
2018-07-30T05:17:09.436Z,97.72
2018-07-30T05:18:09.370Z,98.35
2018-07-30T05:19:09.329Z,99.31
2018-07-30T05:20:09.282Z,98.63
2018-07-30T05:21:09.241Z,99.84
2018-07-30T05:22:09.216Z,99.99
2018-07-30T05:23:09.160Z,99.99
2018-07-30T05:24:09.123Z,99.65
2018-07-30T05:25:09.065Z,97.81
2018-07-30T05:26:09.022Z,96.99
2018-07-30T05:27:09.005Z,96.60
2018-07-30T05:28:08.943Z,92.34
2018-07-30T05:29:08.892Z,93.21
2018-07-30T05:30:08.865Z,94.67
2018-07-30T05:31:08.811Z,93.21
2018-07-30T05:32:08.785Z,90.21
2018-07-30T05:33:08.721Z,89.05
2018-07-30T05:34:08.677Z,90.89
2018-07-30T05:35:08.637Z,91.18
2018-07-30T05:36:08.600Z,90.60
2018-07-30T05:37:08.606Z,90.89
2018-07-30T05:38:08.510Z,90.17
2018-07-30T05:39:08.468Z,93.36
2018-07-30T05:40:08.431Z,94.52
2018-07-30T05:41:08.378Z,95.97
2018-07-30T05:42:08.376Z,92.20
2018-07-30T05:43:08.298Z,94.23
2018-07-30T05:44:08.258Z,94.13
2018-07-30T05:45:08.213Z,93.46
2018-07-30T05:46:08.167Z,92.88
2018-07-30T05:47:08.154Z,93.02
2018-07-30T05:48:08.096Z,95.06
2018-07-30T05:49:08.039Z,92.74
2018-07-30T05:50:08.017Z,92.10
2018-07-30T05:51:07.953Z,93.41
2018-07-30T05:52:07.939Z,92.58
2018-07-30T05:53:07.865Z,92.25
2018-07-30T05:54:07.830Z,94.67
2018-07-30T05:55:07.787Z,94.67
2018-07-30T05:56:07.736Z,96.12
2018-07-30T05:57:07.723Z,97.67
2018-07-30T05:58:07.655Z,96.12
2018-07-30T05:59:07.610Z,96.70
2018-07-30T06:00:07.572Z,94.72
2018-07-30T06:01:07.525Z,95.25
2018-07-30T06:02:07.505Z,94.86
2018-07-30T06:03:07.452Z,93.60
2018-07-30T06:04:07.400Z,93.95
2018-07-30T06:05:07.351Z,93.70
2018-07-30T06:06:07.310Z,91.86
2018-07-30T06:07:07.310Z,92.49
2018-07-30T06:08:07.225Z,93.56
2018-07-30T06:09:07.181Z,94.43
2018-07-30T06:10:07.136Z,93.66
2018-07-30T06:11:07.095Z,91.48
2018-07-30T06:12:07.074Z,92.25
2018-07-30T06:13:07.005Z,92.40
2018-07-30T06:14:06.965Z,91.33
2018-07-30T06:15:06.922Z,88.62
2018-07-30T06:16:06.879Z,89.05
2018-07-30T06:17:06.856Z,89.15
2018-07-30T06:18:06.790Z,88.23
2018-07-30T06:19:06.749Z,88.51
2018-07-30T06:20:06.706Z,89.39
2018-07-30T06:21:06.662Z,86.19
2018-07-30T06:22:06.643Z,85.61
2018-07-30T06:23:06.575Z,86.19
2018-07-30T06:24:06.546Z,85.80
2018-07-30T06:25:06.492Z,86.23
2018-07-30T06:26:06.451Z,84.58
2018-07-30T06:27:06.439Z,82.75
2018-07-30T06:28:06.363Z,81.93
2018-07-30T06:29:06.320Z,85.71
2018-07-30T06:30:06.278Z,85.80
2018-07-30T06:31:06.238Z,88.03
2018-07-30T06:32:06.192Z,88.71
2018-07-30T06:33:06.174Z,85.22
2018-07-30T06:34:06.108Z,86.96
2018-07-30T06:35:06.070Z,84.83
2018-07-30T06:36:06.026Z,85.03
2018-07-30T06:37:05.980Z,84.83
2018-07-30T06:38:05.964Z,88.42
2018-07-30T06:39:05.893Z,83.58
2018-07-30T06:40:05.854Z,82.51
2018-07-30T06:41:05.816Z,84.74
2018-07-30T06:42:05.766Z,83.23
2018-07-30T06:43:05.753Z,79.55
2018-07-30T06:44:05.689Z,78.87
2018-07-30T06:45:05.642Z,79.16
2018-07-30T06:46:05.602Z,78.97
2018-07-30T06:47:05.570Z,79.45
2018-07-30T06:48:05.548Z,81.48
2018-07-30T06:49:05.485Z,79.45
2018-07-30T06:50:05.435Z,79.10
2018-07-30T06:51:05.397Z,79.39
2018-07-30T06:52:05.348Z,78.52
2018-07-30T06:53:05.341Z,80.01
2018-07-30T06:54:05.261Z,78.17
2018-07-30T06:55:05.219Z,78.40
2018-07-30T06:56:05.181Z,79.90
2018-07-30T06:57:05.136Z,78.25
2018-07-30T06:58:05.117Z,78.19
2018-07-30T06:59:05.060Z,76.25
2018-07-30T07:00:05.018Z,73.56
2018-07-30T07:01:04.971Z,74.05
2018-07-30T07:02:04.960Z,73.99
2018-07-30T07:03:04.910Z,70.00
2018-07-30T07:04:04.844Z,65.43
2018-07-30T07:05:04.805Z,63.55
2018-07-30T07:06:04.768Z,65.50
2018-07-30T07:07:04.724Z,64.59
2018-07-30T07:08:04.703Z,65.95
2018-07-30T07:09:04.657Z,67.28
2018-07-30T07:10:04.601Z,66.02
2018-07-30T07:11:04.558Z,66.69
2018-07-30T07:12:04.521Z,63.39
2018-07-30T07:13:04.509Z,62.71
2018-07-30T07:14:04.433Z,63.29
2018-07-30T07:15:04.398Z,63.71
2018-07-30T07:16:04.352Z,61.87
2018-07-30T07:17:04.315Z,63.45
2018-07-30T07:18:04.299Z,65.01
2018-07-30T07:19:04.233Z,63.78
2018-07-30T07:20:04.192Z,59.41
2018-07-30T07:21:04.148Z,60.60
2018-07-30T07:22:04.130Z,61.08
2018-07-30T07:23:04.097Z,59.66
2018-07-30T07:24:04.043Z,55.37
2018-07-30T07:25:04.002Z,56.64
2018-07-30T07:26:03.947Z,55.76
2018-07-30T07:27:04.016Z,58.07
2018-07-30T07:28:03.951Z,56.90
2018-07-30T07:29:03.825Z,57.59
2018-07-30T07:30:03.789Z,58.33
2018-07-30T07:31:03.740Z,56.39
2018-07-30T07:32:03.705Z,60.18
2018-07-30T07:33:03.716Z,58.43
2018-07-30T07:34:03.636Z,58.53
2018-07-30T07:35:03.650Z,57.04
2018-07-30T07:36:03.547Z,57.46
2018-07-30T07:37:03.499Z,58.23
2018-07-30T07:38:03.502Z,58.14
2018-07-30T07:39:03.426Z,59.67
2018-07-30T07:40:03.378Z,62.10
2018-07-30T07:41:03.337Z,60.15
2018-07-30T07:42:03.312Z,58.11
2018-07-30T07:43:03.285Z,58.50
2018-07-30T07:44:03.226Z,58.01
2018-07-30T07:45:03.230Z,58.23
2018-07-30T07:46:03.151Z,57.36
2018-07-30T07:47:03.101Z,57.59
2018-07-30T07:48:03.098Z,55.15
2018-07-30T07:49:03.053Z,54.89
2018-07-30T07:50:02.986Z,55.18
2018-07-30T07:51:03.101Z,55.66
2018-07-30T07:52:02.896Z,57.42
2018-07-30T07:53:02.888Z,57.71
2018-07-30T07:54:02.836Z,57.00
2018-07-30T07:55:02.781Z,57.10
2018-07-30T07:56:02.762Z,59.72
2018-07-30T07:57:02.700Z,56.90
2018-07-30T07:58:02.679Z,56.22
2018-07-30T07:59:02.612Z,56.03
2018-07-30T08:00:02.571Z,58.17
2018-07-30T08:01:02.542Z,57.49
2018-07-30T08:02:02.495Z,56.81
2018-07-30T08:03:02.508Z,55.64
2018-07-30T08:04:02.415Z,55.57
2018-07-30T08:05:02.379Z,58.39
2018-07-30T08:06:02.332Z,55.40
2018-07-30T08:07:02.292Z,55.82
2018-07-30T08:08:02.260Z,55.04
2018-07-30T08:09:02.253Z,53.11
2018-07-30T08:10:02.180Z,51.46
2018-07-30T08:11:02.369Z,52.04
2018-07-30T08:12:02.097Z,51.43
2018-07-30T08:13:02.067Z,51.53
2018-07-30T08:14:02.037Z,52.60
2018-07-30T08:15:01.981Z,52.12
2018-07-30T08:16:01.938Z,51.92
2018-07-30T08:17:01.900Z,51.14
2018-07-30T08:18:01.853Z,51.17
2018-07-30T08:19:01.852Z,52.31
2018-07-30T08:20:01.798Z,52.02
2018-07-30T08:21:01.737Z,54.65
2018-07-30T08:22:01.698Z,53.58
2018-07-30T08:23:01.670Z,54.75
2018-07-30T08:24:01.642Z,55.04
2018-07-30T08:25:01.577Z,54.94
2018-07-30T08:26:01.539Z,55.30
2018-07-30T08:27:01.496Z,56.37
2018-07-30T08:28:01.480Z,54.52
2018-07-30T08:29:01.517Z,52.97
2018-07-30T08:30:01.380Z,53.67
2018-07-30T08:31:01.339Z,53.55
2018-07-30T08:32:01.299Z,53.16
2018-07-30T08:33:01.284Z,53.85
2018-07-30T08:34:01.266Z,53.65
2018-07-30T08:35:01.185Z,55.86
2018-07-30T08:36:01.142Z,53.62
2018-07-30T08:37:01.111Z,55.08
2018-07-30T08:38:01.068Z,54.50
2018-07-30T08:39:01.047Z,54.50
2018-07-30T08:40:00.989Z,53.42
2018-07-30T08:41:00.943Z,55.08
2018-07-30T08:42:00.907Z,54.89
2018-07-30T08:43:00.872Z,56.18
2018-07-30T08:44:00.845Z,56.09
2018-07-30T08:45:00.783Z,55.79
2018-07-30T08:46:00.745Z,55.43
2018-07-30T08:47:00.716Z,54.55
2018-07-30T08:48:00.679Z,54.75
2018-07-30T08:49:00.659Z,53.28
2018-07-30T08:50:00.588Z,53.41
2018-07-30T08:51:00.547Z,53.70
2018-07-30T08:52:00.513Z,53.99
2018-07-30T08:53:00.470Z,55.36
2018-07-30T08:54:00.448Z,51.65
2018-07-30T08:55:00.390Z,53.58
2018-07-30T08:56:00.352Z,53.41
2018-07-30T08:57:00.312Z,52.53
2018-07-30T08:58:00.274Z,51.85
2018-07-30T08:59:00.268Z,54.58
2018-07-30T09:00:00.196Z,54.87
2018-07-30T09:01:00.155Z,54.68
2018-07-30T09:02:00.114Z,53.50
2018-07-30T09:03:00.085Z,50.02
2018-07-30T09:04:00.076Z,49.12
2018-07-30T09:05:00.005Z,51.09
2018-07-30T09:05:59.977Z,51.19
2018-07-30T09:06:59.939Z,52.68
2018-07-30T09:07:59.902Z,55.12
2018-07-30T09:08:59.879Z,54.05
2018-07-30T09:09:59.801Z,53.27
2018-07-30T09:10:59.773Z,51.31
2018-07-30T09:11:59.728Z,49.95
2018-07-30T09:12:59.694Z,49.17
2018-07-30T09:13:59.676Z,50.73
2018-07-30T09:14:59.622Z,53.07
2018-07-30T09:15:59.590Z,52.19
2018-07-30T09:16:59.554Z,53.85
2018-07-30T09:17:59.502Z,50.04
2018-07-30T09:18:59.483Z,50.02
2018-07-30T09:19:59.424Z,52.85
2018-07-30T09:20:59.385Z,52.66
2018-07-30T09:21:59.348Z,51.58
2018-07-30T09:22:59.311Z,51.48
2018-07-30T09:23:59.296Z,51.58
2018-07-30T09:24:59.231Z,51.29
2018-07-30T09:25:59.196Z,49.95
2018-07-30T09:26:59.160Z,49.93
2018-07-30T09:27:59.117Z,48.10
2018-07-30T09:28:59.081Z,50.04
2018-07-30T09:29:59.059Z,50.73
2018-07-30T09:30:58.999Z,50.24
2018-07-30T09:31:58.967Z,50.43
2018-07-30T09:32:59.008Z,49.27
2018-07-30T09:33:58.887Z,49.56
2018-07-30T09:34:58.873Z,48.19
2018-07-30T09:35:58.810Z,48.07
2018-07-30T09:36:58.780Z,49.63
2018-07-30T09:37:58.731Z,50.41
2018-07-30T09:38:58.697Z,53.46
2018-07-30T09:39:58.680Z,52.87
2018-07-30T09:40:58.618Z,49.93
2018-07-30T09:41:58.578Z,49.93
2018-07-30T09:42:58.567Z,49.95
2018-07-30T09:43:58.504Z,48.39
2018-07-30T09:44:58.551Z,48.32
2018-07-30T09:45:58.427Z,46.85
2018-07-30T09:46:58.384Z,48.32
2018-07-30T09:47:58.349Z,48.12
2018-07-30T09:48:58.323Z,46.85
2018-07-30T09:49:58.301Z,47.41
2018-07-30T09:50:58.244Z,45.56
2018-07-30T09:51:58.197Z,46.70
2018-07-30T09:52:58.159Z,47.09
2018-07-30T09:53:58.130Z,48.00
2018-07-30T09:54:58.104Z,48.00
2018-07-30T09:55:58.052Z,49.76
2018-07-30T09:56:58.054Z,49.58
2018-07-30T09:57:57.966Z,51.53
2018-07-30T09:58:57.938Z,48.54
2018-07-30T09:59:57.910Z,48.44
2018-07-30T10:00:57.848Z,48.05
2018-07-30T10:01:57.821Z,48.34
2018-07-30T10:02:57.775Z,46.29
2018-07-30T10:03:57.736Z,46.95
2018-07-30T10:04:57.731Z,48.32
2018-07-30T10:05:57.659Z,50.04
2018-07-30T10:06:57.620Z,48.88
2018-07-30T10:07:57.582Z,48.29
2018-07-30T10:08:57.543Z,46.83
2018-07-30T10:09:57.528Z,47.97
2018-07-30T10:10:57.490Z,49.54
2018-07-30T10:11:57.435Z,52.53
2018-07-30T10:12:57.388Z,48.63
2018-07-30T10:13:57.358Z,49.61
2018-07-30T10:14:57.331Z,48.54
2018-07-30T10:15:57.272Z,49.88
2018-07-30T10:16:57.236Z,52.70
2018-07-30T10:17:57.217Z,52.02
2018-07-30T10:18:57.157Z,49.97
2018-07-30T10:19:57.144Z,49.68
2018-07-30T10:20:57.653Z,50.68
2018-07-30T10:21:57.041Z,50.51
2018-07-30T10:22:57.003Z,51.29
2018-07-30T10:23:56.959Z,49.95
2018-07-30T10:24:56.946Z,49.85
2018-07-30T10:25:56.895Z,48.00
2018-07-30T10:26:56.849Z,49.76
2018-07-30T10:27:56.809Z,50.26
2018-07-30T10:28:56.776Z,48.10
2018-07-30T10:29:56.775Z,46.95
2018-07-30T10:30:56.689Z,48.22
2018-07-30T10:31:56.652Z,48.12
2018-07-30T10:32:56.610Z,48.34
2018-07-30T10:33:56.574Z,48.34
2018-07-30T10:34:56.556Z,47.38
2018-07-30T10:35:56.497Z,46.21
2018-07-30T10:36:56.457Z,45.55
2018-07-30T10:37:56.466Z,46.72
2018-07-30T10:38:56.382Z,44.35
2018-07-30T10:39:56.399Z,44.14
2018-07-30T10:40:56.318Z,44.53
2018-07-30T10:41:56.272Z,45.41
2018-07-30T10:42:56.228Z,46.78
2018-07-30T10:43:56.188Z,46.88
2018-07-30T10:44:56.172Z,44.82
2018-07-30T10:45:56.111Z,46.58
2018-07-30T10:46:56.076Z,46.78
2018-07-30T10:47:56.040Z,46.58
2018-07-30T10:48:55.998Z,46.48
2018-07-30T10:49:55.990Z,46.11
2018-07-30T10:50:55.928Z,46.11
2018-07-30T10:51:55.890Z,48.16
2018-07-30T10:52:55.847Z,47.97
2018-07-30T10:53:55.889Z,47.48
2018-07-30T10:54:55.771Z,45.62
2018-07-30T10:55:55.757Z,44.96
2018-07-30T10:56:55.688Z,46.43
2018-07-30T10:57:55.659Z,46.14
2018-07-30T10:58:55.621Z,46.92
2018-07-30T10:59:55.582Z,48.77
2018-07-30T11:00:55.616Z,48.50
2018-07-30T11:01:55.506Z,44.89
2018-07-30T11:02:55.467Z,45.67
2018-07-30T11:03:55.425Z,45.76
2018-07-30T11:04:55.390Z,45.18
2018-07-30T11:05:55.372Z,44.96
2018-07-30T11:06:55.312Z,46.53
2018-07-30T11:07:55.336Z,45.08
2018-07-30T11:08:55.237Z,47.89
2018-07-30T11:09:55.198Z,48.38
2018-07-30T11:10:55.187Z,47.31
2018-07-30T11:11:55.123Z,45.55
2018-07-30T11:12:55.085Z,47.41
2018-07-30T11:13:55.051Z,48.87
2018-07-30T11:14:55.054Z,46.82
2018-07-30T11:15:54.994Z,45.45
2018-07-30T11:16:54.934Z,44.96
2018-07-30T11:17:54.899Z,44.98
2018-07-30T11:18:54.867Z,46.75
2018-07-30T11:19:54.823Z,48.31
2018-07-30T11:20:54.805Z,46.43
2018-07-30T11:21:54.751Z,46.26
2018-07-30T11:22:54.708Z,47.02
2018-07-30T11:23:54.673Z,46.14
2018-07-30T11:24:54.644Z,48.09
2018-07-30T11:25:54.622Z,45.47
2018-07-30T11:26:54.559Z,46.33
2018-07-30T11:27:54.552Z,46.84
2018-07-30T11:28:54.479Z,46.92
2018-07-30T11:29:54.441Z,45.65
2018-07-30T11:30:54.433Z,45.26
2018-07-30T11:31:54.369Z,45.55
2018-07-30T11:32:54.329Z,46.84
2018-07-30T11:33:54.300Z,45.76
2018-07-30T11:34:54.252Z,46.55
2018-07-30T11:35:54.246Z,45.76
2018-07-30T11:36:54.181Z,46.84
2018-07-30T11:37:54.145Z,45.40
2018-07-30T11:38:54.108Z,43.84
2018-07-30T11:39:54.066Z,44.71
2018-07-30T11:40:54.060Z,45.03
2018-07-30T11:41:53.989Z,45.42
2018-07-30T11:42:53.974Z,44.73
2018-07-30T11:43:53.915Z,44.64
2018-07-30T11:44:53.877Z,45.01
2018-07-30T11:45:53.862Z,45.72
2018-07-30T11:46:53.803Z,48.16
2018-07-30T11:47:53.766Z,46.89
2018-07-30T11:48:53.730Z,44.93
2018-07-30T11:49:53.693Z,44.13
2018-07-30T11:50:53.681Z,46.97
2018-07-30T11:51:53.616Z,45.37
2018-07-30T11:52:53.589Z,44.69
2018-07-30T11:53:53.560Z,45.08
2018-07-30T11:54:53.502Z,45.67
2018-07-30T11:55:53.489Z,46.45
2018-07-30T11:56:53.426Z,47.04
2018-07-30T11:57:53.389Z,45.28
2018-07-30T11:58:53.351Z,44.42
2018-07-30T11:59:53.317Z,45.89
2018-07-30T12:00:53.313Z,44.89
2018-07-30T12:01:53.285Z,45.69
2018-07-30T12:02:53.224Z,45.69
2018-07-30T12:03:53.166Z,46.57
2018-07-30T12:04:53.128Z,46.18
2018-07-30T12:05:53.110Z,45.97
2018-07-30T12:06:53.051Z,45.57
2018-07-30T12:07:53.013Z,45.47
2018-07-30T12:08:53.021Z,45.37
2018-07-30T12:09:52.949Z,45.69
2018-07-30T12:10:52.922Z,44.69
2018-07-30T12:11:52.887Z,45.59
2018-07-30T12:12:52.827Z,47.06
2018-07-30T12:13:52.789Z,49.80
2018-07-30T12:14:52.753Z,47.94
2018-07-30T12:15:52.741Z,45.01
2018-07-30T12:16:52.673Z,45.01
2018-07-30T12:17:52.646Z,46.18
2018-07-30T12:18:52.598Z,46.08
2018-07-30T12:19:52.557Z,44.81
2018-07-30T12:20:52.520Z,45.23
2018-07-30T12:21:52.546Z,46.67
2018-07-30T12:22:52.459Z,46.86
2018-07-30T12:23:52.408Z,46.28
2018-07-30T12:24:52.368Z,45.59
2018-07-30T12:25:52.336Z,44.91
2018-07-30T12:26:52.320Z,45.98
2018-07-30T12:27:52.258Z,45.40
2018-07-30T12:28:52.220Z,46.18
2018-07-30T12:29:52.179Z,45.01
2018-07-30T12:30:52.142Z,45.10
2018-07-30T12:31:52.128Z,45.10
2018-07-30T12:32:52.067Z,46.67
2018-07-30T12:33:52.025Z,44.64
2018-07-30T12:34:51.990Z,45.23
2018-07-30T12:35:51.956Z,44.44
2018-07-30T12:36:51.937Z,44.34
2018-07-30T12:37:51.878Z,43.95
2018-07-30T12:38:51.842Z,44.15
2018-07-30T12:39:51.805Z,44.64
2018-07-30T12:40:51.763Z,45.03
2018-07-30T12:41:51.750Z,45.32
2018-07-30T12:42:51.688Z,45.03
2018-07-30T12:43:51.679Z,44.73
2018-07-30T12:44:51.613Z,45.72
2018-07-30T12:45:51.572Z,45.23
2018-07-30T12:46:51.575Z,45.81
2018-07-30T12:47:51.500Z,44.24
2018-07-30T12:48:51.461Z,44.64
2018-07-30T12:49:51.421Z,44.93
2018-07-30T12:50:51.390Z,45.42
2018-07-30T12:51:51.372Z,45.23